createdAt,value
2023-01-31T00:01:35.553Z,96479.84
2023-01-31T00:04:04.950Z,96484.81
2023-01-31T00:06:34.002Z,96489.00
2023-01-31T00:09:02.241Z,96482.06
2023-01-31T00:11:30.753Z,96485.84
2023-01-31T00:14:01.105Z,96482.31
2023-01-31T00:16:28.075Z,96486.13
2023-01-31T00:18:54.877Z,96481.03
2023-01-31T00:21:27.486Z,96492.53
2023-01-31T00:23:55.517Z,96488.63
2023-01-31T00:26:31.267Z,96488.91
2023-01-31T00:29:00.698Z,96503.53
2023-01-31T00:31:28.817Z,96493.47
2023-01-31T00:33:56.390Z,96415.09
2023-01-31T00:36:26.288Z,96409.66
2023-01-31T00:38:55.006Z,96482.84
2023-01-31T00:41:23.317Z,96482.75
2023-01-31T00:43:50.747Z,96487.72
2023-01-31T00:46:20.178Z,96476.09
2023-01-31T00:48:46.872Z,96488.91
2023-01-31T00:51:13.688Z,96484.97
2023-01-31T00:53:40.118Z,96483.47
2023-01-31T00:56:09.705Z,96483.06
2023-01-31T00:58:37.154Z,96481.91
2023-01-31T01:01:12.157Z,96483.06
2023-01-31T01:03:39.755Z,96481.00
2023-01-31T01:06:07.115Z,96471.63
2023-01-31T01:08:34.683Z,96478.66
2023-01-31T01:11:11.028Z,96480.50
2023-01-31T01:13:38.079Z,96483.47
2023-01-31T01:16:09.597Z,96485.81
2023-01-31T01:18:36.629Z,96483.13
2023-01-31T01:21:09.579Z,96489.59
2023-01-31T01:23:37.100Z,96486.03
2023-01-31T01:26:03.923Z,96494.81
2023-01-31T01:31:06.544Z,96495.09
2023-01-31T01:33:33.148Z,96490.13
2023-01-31T01:36:04.569Z,96488.50
2023-01-31T01:38:31.373Z,96496.16
2023-01-31T01:40:57.847Z,96492.28
2023-01-31T01:43:50.763Z,96505.38
2023-01-31T01:46:24.898Z,96495.66
2023-01-31T01:48:57.482Z,96491.06
2023-01-31T01:51:24.978Z,96504.09
2023-01-31T01:53:55.285Z,96507.16
2023-01-31T01:56:26.866Z,96503.56
2023-01-31T01:59:15.200Z,96514.25
2023-01-31T02:01:43.253Z,96508.44
2023-01-31T02:04:15.217Z,96502.63
2023-01-31T02:06:43.320Z,96515.66
2023-01-31T02:09:30.941Z,96527.94
2023-01-31T02:11:58.828Z,96524.72
2023-01-31T02:14:27.002Z,96527.03
2023-01-31T02:16:53.966Z,96527.75
2023-01-31T02:19:52.582Z,96532.38
2023-01-31T02:22:32.422Z,96528.03
2023-01-31T02:25:26.785Z,96534.56
2023-01-31T02:28:26.604Z,96542.22
2023-01-31T02:31:25.482Z,96529.88
2023-01-31T02:34:19.447Z,96530.22
2023-01-31T02:37:13.331Z,96529.78
2023-01-31T02:40:12.570Z,96540.47
2023-01-31T02:43:18.155Z,96542.38
2023-01-31T02:46:02.070Z,96540.38
2023-01-31T02:48:53.622Z,96528.03
2023-01-31T02:51:24.900Z,96524.84
2023-01-31T02:54:06.297Z,96529.09
2023-01-31T02:56:35.621Z,96543.69
2023-01-31T02:59:12.148Z,96553.69
2023-01-31T03:01:46.342Z,96562.53
2023-01-31T03:04:14.811Z,96554.72
2023-01-31T03:06:54.577Z,96560.88
2023-01-31T03:09:36.598Z,96568.50
2023-01-31T03:12:21.645Z,96561.13
2023-01-31T03:15:06.815Z,96561.56
2023-01-31T03:17:47.340Z,96565.72
2023-01-31T03:20:29.444Z,96570.34
2023-01-31T03:23:03.522Z,96573.75
2023-01-31T03:25:34.623Z,96581.34
2023-01-31T03:28:09.178Z,96579.78
2023-01-31T03:30:45.557Z,96581.72
2023-01-31T03:33:26.520Z,96579.72
2023-01-31T03:36:04.733Z,96585.00
2023-01-31T03:38:37.171Z,96589.97
2023-01-31T03:41:18.399Z,96595.66
2023-01-31T03:43:50.650Z,96603.75
2023-01-31T03:46:44.313Z,96601.38
2023-01-31T03:49:15.279Z,96608.25
2023-01-31T03:51:47.928Z,96615.88
2023-01-31T03:54:22.768Z,96618.09
2023-01-31T03:56:57.724Z,96614.63
2023-01-31T03:59:37.096Z,96616.53
2023-01-31T04:02:06.412Z,96613.84
2023-01-31T04:04:42.648Z,96606.03
2023-01-31T04:07:09.627Z,96609.84
2023-01-31T04:09:38.699Z,96616.00
2023-01-31T04:12:05.422Z,96626.00
2023-01-31T04:14:32.126Z,96626.31
2023-01-31T04:16:58.686Z,96629.38
2023-01-31T04:19:25.232Z,96625.13
2023-01-31T04:21:51.672Z,96630.03
2023-01-31T04:24:18.089Z,96631.16
2023-01-31T04:26:44.549Z,96632.28
2023-01-31T04:29:10.968Z,96632.97
2023-01-31T04:31:37.813Z,96625.72
2023-01-31T04:34:04.308Z,96634.09
2023-01-31T04:36:30.716Z,96636.00
2023-01-31T04:38:57.175Z,96637.50
2023-01-31T04:41:23.631Z,96645.56
2023-01-31T04:43:50.076Z,96647.00
2023-01-31T04:46:16.511Z,96644.66
2023-01-31T04:48:43.003Z,96641.53
2023-01-31T04:51:09.758Z,96655.41
2023-01-31T04:53:36.362Z,96657.22
2023-01-31T04:56:03.884Z,96656.91
2023-01-31T04:58:30.624Z,96656.47
2023-01-31T05:00:57.301Z,96656.34
2023-01-31T05:03:23.804Z,96669.09
2023-01-31T05:05:51.256Z,96664.84
2023-01-31T05:08:17.699Z,96671.34
2023-01-31T05:10:44.174Z,96672.13
2023-01-31T05:13:10.780Z,96673.72
2023-01-31T05:15:38.325Z,96671.34
2023-01-31T05:18:04.873Z,96681.78
2023-01-31T05:20:34.993Z,96675.94
2023-01-31T05:23:01.423Z,96673.94
2023-01-31T05:25:27.876Z,96683.56
2023-01-31T05:30:26.941Z,96699.63
2023-01-31T05:32:53.547Z,96702.63
2023-01-31T05:35:20.326Z,96690.31
2023-01-31T05:37:47.047Z,96697.09
2023-01-31T05:40:16.178Z,96697.63
2023-01-31T05:42:43.126Z,96695.91
2023-01-31T05:45:11.334Z,96683.13
2023-01-31T05:47:37.815Z,96685.56
2023-01-31T05:50:04.663Z,96675.56
2023-01-31T05:52:31.076Z,96674.09
2023-01-31T05:54:57.598Z,96667.13
2023-01-31T05:57:24.071Z,96647.47
2023-01-31T05:59:50.585Z,96686.00
2023-01-31T06:02:17.085Z,96698.56
2023-01-31T06:04:43.556Z,96665.91
2023-01-31T06:07:09.971Z,96637.31
2023-01-31T06:09:38.713Z,96678.03
2023-01-31T06:12:05.537Z,96605.44
2023-01-31T06:14:33.071Z,96649.72
2023-01-31T06:16:59.684Z,96662.19
2023-01-31T06:19:26.195Z,96680.59
2023-01-31T06:21:52.671Z,96672.00
2023-01-31T06:24:19.157Z,96638.03
2023-01-31T06:26:45.609Z,96660.00
2023-01-31T06:29:12.104Z,96676.06
2023-01-31T06:31:38.679Z,96690.78
2023-01-31T06:34:05.231Z,96654.72
2023-01-31T06:36:33.966Z,96677.31
2023-01-31T06:39:00.513Z,96663.00
2023-01-31T06:41:27.001Z,96665.38
2023-01-31T06:43:53.422Z,96682.63
2023-01-31T06:46:19.917Z,96688.94
2023-01-31T06:48:48.279Z,96702.00
2023-01-31T06:51:15.785Z,96662.72
2023-01-31T06:53:42.573Z,96678.75
2023-01-31T06:56:09.661Z,96694.72
2023-01-31T06:58:36.206Z,96727.59
2023-01-31T07:01:07.998Z,96721.16
2023-01-31T07:03:34.929Z,96743.41
2023-01-31T07:06:01.633Z,96718.72
2023-01-31T07:08:28.207Z,96713.63
2023-01-31T07:10:54.693Z,96725.44
2023-01-31T07:13:21.109Z,96735.50
2023-01-31T07:15:47.606Z,96712.91
2023-01-31T07:18:14.330Z,96724.72
2023-01-31T07:20:42.104Z,96739.22
2023-01-31T07:23:09.064Z,96706.03
2023-01-31T07:25:36.198Z,96735.75
2023-01-31T07:28:03.360Z,96733.91
2023-01-31T07:30:30.402Z,96730.94
2023-01-31T07:32:56.936Z,96713.41
2023-01-31T07:35:23.480Z,96716.69
2023-01-31T07:37:52.979Z,96719.84
2023-01-31T07:40:19.544Z,96697.63
2023-01-31T07:42:46.258Z,96722.00
2023-01-31T07:45:23.377Z,96735.91
2023-01-31T07:47:50.939Z,96723.81
2023-01-31T07:50:17.757Z,96734.06
2023-01-31T07:52:44.216Z,96722.03
2023-01-31T07:55:10.653Z,96712.16
2023-01-31T07:57:37.111Z,96747.53
2023-01-31T08:00:04.507Z,96718.69
2023-01-31T08:02:56.695Z,96728.44
2023-01-31T08:05:23.441Z,96721.72
2023-01-31T08:08:09.970Z,96725.66
2023-01-31T08:10:36.670Z,96717.03
2023-01-31T08:13:03.092Z,96717.03
2023-01-31T08:15:29.614Z,96687.75
2023-01-31T08:17:56.062Z,96716.25
2023-01-31T08:20:22.491Z,96716.25
2023-01-31T08:22:48.927Z,96706.88
2023-01-31T08:25:15.398Z,96695.84
2023-01-31T08:27:41.835Z,96746.09
2023-01-31T08:30:09.131Z,96733.31
2023-01-31T08:32:35.572Z,96732.69
2023-01-31T08:35:01.991Z,96696.63
2023-01-31T08:37:28.400Z,96708.63
2023-01-31T08:39:54.826Z,96726.59
2023-01-31T08:42:21.268Z,96736.63
2023-01-31T08:44:47.740Z,96705.50
2023-01-31T08:47:14.211Z,96717.38
2023-01-31T08:49:40.719Z,96718.88
2023-01-31T08:52:07.541Z,96725.75
2023-01-31T08:54:33.942Z,96730.81
2023-01-31T08:57:00.444Z,96736.44
2023-01-31T08:59:27.167Z,96738.34
2023-01-31T09:01:53.679Z,96745.81
2023-01-31T09:04:20.227Z,96720.34
2023-01-31T09:06:46.749Z,96749.06
2023-01-31T09:09:13.270Z,96732.78
2023-01-31T09:11:39.752Z,96747.50
2023-01-31T09:14:06.314Z,96752.28
2023-01-31T09:16:32.834Z,96746.09
2023-01-31T09:18:59.305Z,96701.06
2023-01-31T09:21:25.846Z,96718.00
2023-01-31T09:23:58.208Z,96739.16
2023-01-31T09:26:24.716Z,96755.00
2023-01-31T09:28:51.337Z,96719.94
2023-01-31T09:31:20.732Z,96741.94
2023-01-31T09:33:47.815Z,96721.81
2023-01-31T09:36:16.947Z,96758.88
2023-01-31T09:38:44.281Z,96762.47
2023-01-31T09:41:26.820Z,96754.91
2023-01-31T09:44:02.758Z,96739.16
2023-01-31T09:46:36.361Z,96733.50
2023-01-31T09:49:06.039Z,96736.81
2023-01-31T09:51:34.936Z,96731.69
2023-01-31T09:54:03.996Z,96742.53
2023-01-31T09:56:30.710Z,96768.69
2023-01-31T09:59:15.997Z,96755.13
2023-01-31T10:01:53.556Z,96747.66
2023-01-31T10:05:02.978Z,96731.69
2023-01-31T10:07:42.191Z,96760.88
2023-01-31T10:10:23.684Z,96741.50
2023-01-31T10:12:55.342Z,96742.00
2023-01-31T10:15:51.184Z,96738.81
2023-01-31T10:18:30.763Z,96727.84
2023-01-31T10:21:05.307Z,96683.63
2023-01-31T10:23:40.010Z,96704.81
2023-01-31T10:26:14.731Z,96698.75
2023-01-31T10:29:06.723Z,96698.66
2023-01-31T10:31:42.215Z,96715.06
2023-01-31T10:34:35.008Z,96706.69
2023-01-31T10:37:07.265Z,96695.78
2023-01-31T10:39:46.481Z,96702.25
2023-01-31T10:42:28.135Z,96703.19
2023-01-31T10:45:13.542Z,96717.22
2023-01-31T10:47:50.801Z,96712.75
2023-01-31T10:50:40.010Z,96697.25
2023-01-31T10:53:30.380Z,96689.16
2023-01-31T10:56:11.146Z,96698.13
2023-01-31T10:58:38.444Z,96688.47
2023-01-31T11:01:08.654Z,96678.53
2023-01-31T11:03:35.250Z,96677.41
2023-01-31T11:06:01.715Z,96666.53
2023-01-31T11:08:46.839Z,96678.75
2023-01-31T11:11:19.430Z,96653.81
2023-01-31T11:14:18.789Z,96669.16
2023-01-31T11:16:45.769Z,96618.97
2023-01-31T11:19:28.462Z,96635.06
2023-01-31T11:21:55.964Z,96649.56
2023-01-31T11:24:25.010Z,96624.16
2023-01-31T11:27:05.565Z,96639.41
2023-01-31T11:29:50.845Z,96627.84
2023-01-31T11:32:24.464Z,96606.31
2023-01-31T11:35:04.770Z,96624.28
2023-01-31T11:37:34.668Z,96621.94
2023-01-31T11:40:16.620Z,96618.47
2023-01-31T11:42:54.609Z,96622.03
2023-01-31T11:45:23.647Z,96597.44
2023-01-31T11:47:52.939Z,96571.72
2023-01-31T11:50:24.951Z,96584.59
2023-01-31T11:53:15.344Z,96599.94
2023-01-31T11:55:43.513Z,96585.25
2023-01-31T11:58:20.875Z,96585.72
2023-01-31T12:01:15.963Z,96576.44
2023-01-31T12:04:01.893Z,96550.75
2023-01-31T12:06:34.063Z,96569.81
2023-01-31T12:09:04.214Z,96553.28
2023-01-31T12:11:33.687Z,96567.06
2023-01-31T12:14:14.551Z,96505.03
2023-01-31T12:16:42.499Z,96553.59
2023-01-31T12:19:25.661Z,96539.19
2023-01-31T12:22:15.303Z,96558.56
2023-01-31T12:25:00.653Z,96567.75
2023-01-31T12:27:39.301Z,96577.44
2023-01-31T12:30:37.943Z,96572.31
2023-01-31T12:33:22.759Z,96559.97
2023-01-31T12:36:23.422Z,96559.56
2023-01-31T12:38:55.556Z,96533.00
2023-01-31T12:41:36.529Z,96530.31
2023-01-31T12:44:21.772Z,96541.00
2023-01-31T12:47:10.578Z,96546.84
2023-01-31T12:50:06.905Z,96547.63
2023-01-31T12:52:53.484Z,96537.94
2023-01-31T12:55:32.403Z,96562.94
2023-01-31T12:58:26.295Z,96560.59
2023-01-31T13:01:06.622Z,96532.13
2023-01-31T13:03:57.938Z,96537.81
2023-01-31T13:06:37.189Z,96515.19
2023-01-31T13:09:10.882Z,96503.97
2023-01-31T13:11:47.771Z,96459.22
2023-01-31T13:14:20.239Z,96502.19
2023-01-31T13:16:48.740Z,96515.47
2023-01-31T13:19:25.442Z,96521.13
2023-01-31T13:21:58.059Z,96503.91
2023-01-31T13:24:31.260Z,96505.72
2023-01-31T13:27:03.313Z,96510.13
2023-01-31T13:29:44.403Z,96426.97
2023-01-31T13:32:19.455Z,96491.69
2023-01-31T13:35:18.081Z,96475.94
2023-01-31T13:37:48.363Z,96449.06
2023-01-31T13:40:20.534Z,96458.91
2023-01-31T13:42:47.224Z,96455.66
2023-01-31T13:45:29.282Z,96454.81
2023-01-31T13:48:06.921Z,96447.56
2023-01-31T13:50:42.221Z,96458.91
2023-01-31T13:53:23.498Z,96455.88
2023-01-31T13:55:51.279Z,96442.97
2023-01-31T13:58:34.435Z,96463.97
2023-01-31T14:01:08.797Z,96443.28
2023-01-31T14:04:21.639Z,96465.94
2023-01-31T14:06:57.140Z,96467.97
2023-01-31T14:09:29.309Z,96452.81
2023-01-31T14:11:58.141Z,96464.69
2023-01-31T14:14:41.165Z,96453.63
2023-01-31T14:17:13.132Z,96438.81
2023-01-31T14:19:42.524Z,96465.38
2023-01-31T14:22:35.365Z,96462.34
2023-01-31T14:25:10.854Z,96457.00
2023-01-31T14:27:46.519Z,96450.44
2023-01-31T14:30:37.244Z,96450.91
2023-01-31T14:33:17.165Z,96424.44
2023-01-31T14:36:21.002Z,96439.22
2023-01-31T14:39:02.700Z,96443.94
2023-01-31T14:41:47.705Z,96388.06
2023-01-31T14:44:46.013Z,96440.09
2023-01-31T14:47:32.502Z,96434.88
2023-01-31T14:50:23.524Z,96435.78
2023-01-31T14:53:29.060Z,96431.56
2023-01-31T14:56:01.551Z,96416.09
2023-01-31T14:58:31.704Z,96420.13
2023-01-31T15:01:02.203Z,96402.53
2023-01-31T15:03:36.264Z,96440.63
2023-01-31T15:06:10.245Z,96413.88
2023-01-31T15:08:51.141Z,96448.06
2023-01-31T15:11:40.241Z,96440.69
2023-01-31T15:14:41.359Z,96446.50
2023-01-31T15:17:33.687Z,96436.72
2023-01-31T15:20:19.679Z,96442.19
2023-01-31T15:22:47.701Z,96417.84
2023-01-31T15:25:34.841Z,96434.50
2023-01-31T15:28:03.321Z,96434.16
2023-01-31T15:30:33.987Z,96400.91
2023-01-31T15:33:08.357Z,96443.31
2023-01-31T15:35:37.034Z,96391.91
2023-01-31T15:38:19.088Z,96428.28
2023-01-31T15:40:45.526Z,96376.06
2023-01-31T15:43:23.297Z,96351.97
2023-01-31T15:45:52.383Z,96408.91
2023-01-31T15:48:21.025Z,96387.50
2023-01-31T15:50:59.347Z,96414.31
2023-01-31T15:53:30.394Z,96366.69
2023-01-31T15:56:03.218Z,96408.78
2023-01-31T15:58:31.601Z,96396.72
2023-01-31T16:00:59.959Z,96399.34
2023-01-31T16:03:29.597Z,96359.69
2023-01-31T16:05:59.969Z,96413.38
2023-01-31T16:08:36.738Z,96414.94
2023-01-31T16:11:06.303Z,96381.97
2023-01-31T16:13:36.593Z,96423.38
2023-01-31T16:16:10.483Z,96425.31
2023-01-31T16:18:38.161Z,96443.41
2023-01-31T16:21:31.567Z,96439.94
2023-01-31T16:24:18.455Z,96444.19
2023-01-31T16:26:57.955Z,96448.44
2023-01-31T16:29:49.622Z,96433.16
2023-01-31T16:32:27.427Z,96426.03
2023-01-31T16:35:03.390Z,96410.22
2023-01-31T16:37:39.342Z,96376.94
2023-01-31T16:40:18.194Z,96415.25
2023-01-31T16:42:44.850Z,96397.56
2023-01-31T16:45:34.426Z,96431.38
2023-01-31T16:48:34.653Z,96449.09
2023-01-31T16:51:28.039Z,96465.28
2023-01-31T16:54:19.692Z,96445.44
2023-01-31T16:57:01.529Z,96454.91
2023-01-31T17:02:24.615Z,96431.47
2023-01-31T17:04:53.856Z,96421.78
2023-01-31T17:07:24.011Z,96448.81
2023-01-31T17:09:55.735Z,96442.88
2023-01-31T17:12:26.042Z,96444.00
2023-01-31T17:14:57.283Z,96454.72
2023-01-31T17:17:27.869Z,96447.13
2023-01-31T17:19:54.965Z,96469.00
2023-01-31T17:22:22.547Z,96475.84
2023-01-31T17:24:50.442Z,96475.94
2023-01-31T17:27:18.711Z,96482.16
2023-01-31T17:29:48.178Z,96481.91
2023-01-31T17:32:20.118Z,96483.19
2023-01-31T17:34:48.584Z,96476.13
2023-01-31T17:37:20.758Z,96450.53
2023-01-31T17:39:50.189Z,96434.69
2023-01-31T17:42:19.357Z,96433.91
2023-01-31T17:44:46.641Z,96453.22
2023-01-31T17:47:13.875Z,96420.91
2023-01-31T17:49:40.360Z,96464.56
2023-01-31T17:52:06.920Z,96463.66
2023-01-31T17:54:33.431Z,96472.16
2023-01-31T17:56:59.847Z,96442.88
2023-01-31T17:59:27.634Z,96436.81
2023-01-31T18:01:54.554Z,96462.94
2023-01-31T18:04:21.128Z,96472.38
2023-01-31T18:06:47.699Z,96435.09
2023-01-31T18:09:16.210Z,96498.69
2023-01-31T18:11:43.751Z,96481.69
2023-01-31T18:14:11.962Z,96494.25
2023-01-31T18:16:38.791Z,96493.38
2023-01-31T18:19:05.384Z,96503.34
2023-01-31T18:21:32.366Z,96473.72
2023-01-31T18:23:59.949Z,96500.63
2023-01-31T18:26:26.699Z,96477.88
2023-01-31T18:28:55.345Z,96496.41
2023-01-31T18:31:22.003Z,96498.69
2023-01-31T18:33:48.883Z,96485.97
2023-01-31T18:36:19.329Z,96503.72
2023-01-31T18:38:47.475Z,96507.72
2023-01-31T18:41:15.742Z,96509.44
2023-01-31T18:43:42.944Z,96516.28
2023-01-31T18:46:10.292Z,96510.81
2023-01-31T18:48:37.460Z,96506.25
2023-01-31T18:51:07.683Z,96515.47
2023-01-31T18:53:36.435Z,96455.81
2023-01-31T18:56:28.723Z,96508.56
2023-01-31T18:58:55.354Z,96494.97
2023-01-31T19:01:24.107Z,96512.56
2023-01-31T19:03:55.243Z,96523.09
2023-01-31T19:06:24.422Z,96510.34
2023-01-31T19:08:54.024Z,96526.28
2023-01-31T19:11:22.816Z,96515.03
2023-01-31T19:13:49.725Z,96512.28
2023-01-31T19:16:21.922Z,96531.78
2023-01-31T19:18:49.855Z,96523.22
2023-01-31T19:21:28.117Z,96515.47
2023-01-31T19:23:57.951Z,96530.47
2023-01-31T19:26:25.658Z,96514.25
2023-01-31T19:28:52.827Z,96515.59
2023-01-31T19:31:22.302Z,96524.03
2023-01-31T19:33:50.837Z,96519.47
2023-01-31T19:36:20.773Z,96515.19
2023-01-31T19:38:48.397Z,96503.16
2023-01-31T19:41:18.963Z,96496.19
2023-01-31T19:43:47.739Z,96493.75
2023-01-31T19:46:14.300Z,96488.47
2023-01-31T19:48:40.736Z,96502.56
2023-01-31T19:51:09.395Z,96494.63
2023-01-31T19:53:37.324Z,96503.72
2023-01-31T19:56:04.190Z,96488.16
2023-01-31T19:58:31.620Z,96480.09
2023-01-31T20:00:59.347Z,96494.16
2023-01-31T20:03:25.827Z,96485.66
2023-01-31T20:05:52.468Z,96480.44
2023-01-31T20:08:19.269Z,96494.22
2023-01-31T20:10:46.167Z,96484.47
2023-01-31T20:13:12.908Z,96499.19
2023-01-31T20:15:39.424Z,96487.25
2023-01-31T20:18:05.933Z,96486.56
2023-01-31T20:20:32.471Z,96502.13
2023-01-31T20:22:58.862Z,96494.97
2023-01-31T20:25:25.424Z,96486.22
2023-01-31T20:27:51.871Z,96481.59
2023-01-31T20:30:20.501Z,96483.88
2023-01-31T20:32:47.175Z,96495.81
2023-01-31T20:35:13.661Z,96503.16
2023-01-31T20:37:40.388Z,96486.69
2023-01-31T20:40:07.405Z,96475.31
2023-01-31T20:42:33.881Z,96494.91
2023-01-31T20:45:00.315Z,96472.81
2023-01-31T20:47:26.855Z,96492.03
2023-01-31T20:49:53.289Z,96483.63
2023-01-31T20:52:21.363Z,96486.13
2023-01-31T20:54:47.789Z,96487.69
2023-01-31T20:57:14.210Z,96480.88
2023-01-31T20:59:40.644Z,96487.91
2023-01-31T21:02:09.945Z,96493.09
2023-01-31T21:04:36.848Z,96496.56
2023-01-31T21:07:04.743Z,96497.88
2023-01-31T21:09:33.119Z,96496.47
2023-01-31T21:11:59.563Z,96498.34
2023-01-31T21:14:28.146Z,96499.28
2023-01-31T21:16:55.673Z,96481.25
2023-01-31T21:19:23.233Z,96490.19
2023-01-31T21:21:49.769Z,96487.34
2023-01-31T21:24:16.193Z,96491.06
2023-01-31T21:26:42.664Z,96480.63
2023-01-31T21:29:09.299Z,96490.59
2023-01-31T21:31:35.982Z,96487.31
2023-01-31T21:34:05.591Z,96494.56
2023-01-31T21:36:34.175Z,96484.84
2023-01-31T21:39:00.731Z,96493.69
2023-01-31T21:41:45.896Z,96493.25
2023-01-31T21:44:12.417Z,96488.31
2023-01-31T21:46:38.988Z,96495.34
2023-01-31T21:49:05.524Z,96472.50
2023-01-31T21:51:32.015Z,96467.34
2023-01-31T21:53:58.428Z,96465.16
2023-01-31T21:56:27.255Z,96480.09
2023-01-31T21:58:55.053Z,96476.19
2023-01-31T22:01:30.892Z,96477.97
2023-01-31T22:03:58.254Z,96475.34
2023-01-31T22:06:37.068Z,96452.47
2023-01-31T22:09:04.938Z,96434.56
2023-01-31T22:11:35.348Z,96442.31
2023-01-31T22:14:05.003Z,96415.97
2023-01-31T22:16:31.793Z,96420.09
2023-01-31T22:19:02.759Z,96438.19
2023-01-31T22:21:33.087Z,96434.97
2023-01-31T22:24:01.366Z,96402.44
2023-01-31T22:26:31.001Z,96407.97
2023-01-31T22:28:59.947Z,96427.38
2023-01-31T22:31:27.079Z,96412.28
2023-01-31T22:33:56.096Z,96423.75
2023-01-31T22:36:24.751Z,96433.38
2023-01-31T22:38:51.328Z,96401.38
2023-01-31T22:41:19.986Z,96407.66
2023-01-31T22:43:48.896Z,96409.50
2023-01-31T22:46:18.201Z,96414.56
2023-01-31T22:48:46.599Z,96429.53
2023-01-31T22:51:15.136Z,96423.75
2023-01-31T22:53:42.212Z,96414.19
2023-01-31T22:56:12.750Z,96446.97
2023-01-31T22:58:39.299Z,96444.09
2023-01-31T23:01:21.145Z,96452.94
2023-01-31T23:03:48.346Z,96462.22
2023-01-31T23:06:16.807Z,96452.22
2023-01-31T23:08:44.152Z,96462.22
2023-01-31T23:11:13.295Z,96453.75
2023-01-31T23:13:40.113Z,96462.25
2023-01-31T23:16:07.717Z,96465.25
2023-01-31T23:18:35.239Z,96460.22
2023-01-31T23:21:20.058Z,96453.50
2023-01-31T23:23:46.772Z,96445.31
2023-01-31T23:26:13.464Z,96460.88
2023-01-31T23:28:40.784Z,96459.28
2023-01-31T23:31:07.583Z,96455.53
2023-01-31T23:33:34.397Z,96435.13
2023-01-31T23:36:00.853Z,96431.88
2023-01-31T23:38:27.609Z,96436.66
2023-01-31T23:40:54.765Z,96438.25
2023-01-31T23:43:22.370Z,96447.09
2023-01-31T23:45:49.252Z,96429.38
2023-01-31T23:48:16.004Z,96427.38
2023-01-31T23:50:42.538Z,96416.53
2023-01-31T23:53:09.204Z,96426.00
2023-01-31T23:55:35.682Z,96407.69
2023-01-31T23:58:02.386Z,96412.56
